createdAt,value
2023-03-08T00:02:14.740Z,-1.45
2023-03-08T00:04:41.261Z,-1.38
2023-03-08T00:07:07.738Z,-1.52
2023-03-08T00:09:34.167Z,-1.52
2023-03-08T00:12:00.614Z,-1.60
2023-03-08T00:14:27.122Z,-1.65
2023-03-08T00:16:53.567Z,-1.86
2023-03-08T00:19:20.053Z,-1.66
2023-03-08T00:21:46.530Z,-1.73
2023-03-08T00:24:16.567Z,-1.71
2023-03-08T00:26:43.800Z,-1.82
2023-03-08T00:29:10.277Z,-1.74
2023-03-08T00:31:37.145Z,-1.83
2023-03-08T00:34:03.761Z,-1.69
2023-03-08T00:36:30.260Z,-1.69
2023-03-08T00:38:57.207Z,-1.56
2023-03-08T00:41:23.815Z,-1.35
2023-03-08T00:43:50.667Z,-1.27
2023-03-08T00:46:17.221Z,-1.19
2023-03-08T00:48:43.753Z,-1.23
2023-03-08T00:51:14.353Z,-1.06
2023-03-08T00:53:46.723Z,-1.10
2023-03-08T00:56:13.307Z,-0.98
2023-03-08T00:58:41.115Z,-1.06
2023-03-08T01:01:11.982Z,-1.08
2023-03-08T01:03:38.633Z,-1.10
2023-03-08T01:06:08.223Z,-0.96
2023-03-08T01:08:34.878Z,-1.01
2023-03-08T01:11:01.465Z,-0.89
2023-03-08T01:13:30.921Z,-0.90
2023-03-08T01:15:58.316Z,-0.92
2023-03-08T01:18:25.444Z,-0.96
2023-03-08T01:21:03.255Z,-0.93
2023-03-08T01:23:33.447Z,-0.79
2023-03-08T01:26:06.112Z,-0.78
2023-03-08T01:28:33.165Z,-0.79
2023-03-08T01:31:08.201Z,-0.73
2023-03-08T01:33:35.307Z,-0.95
2023-03-08T01:36:09.423Z,-0.88
2023-03-08T01:38:36.436Z,-0.72
2023-03-08T01:41:05.600Z,-0.87
2023-03-08T01:43:37.434Z,-0.66
2023-03-08T01:46:06.160Z,-0.93
2023-03-08T01:48:42.031Z,-0.88
2023-03-08T01:51:12.874Z,-0.82
2023-03-08T01:53:40.784Z,-0.98
2023-03-08T01:56:11.432Z,-0.82
2023-03-08T01:58:40.538Z,-1.04
2023-03-08T02:01:07.203Z,-1.01
2023-03-08T02:03:33.706Z,-1.05
2023-03-08T02:06:00.548Z,-0.98
2023-03-08T02:08:27.048Z,-1.05
2023-03-08T02:10:54.138Z,-1.06
2023-03-08T02:13:21.403Z,-1.07
2023-03-08T02:15:50.261Z,-0.92
2023-03-08T02:18:16.742Z,-0.87
2023-03-08T02:20:43.329Z,-0.88
2023-03-08T02:23:18.982Z,-0.82
2023-03-08T02:25:51.534Z,-0.82
2023-03-08T02:28:19.787Z,-0.84
2023-03-08T02:30:46.910Z,-0.68
2023-03-08T02:33:13.355Z,-0.84
2023-03-08T02:35:42.604Z,-0.73
2023-03-08T02:38:13.824Z,-0.82
2023-03-08T02:40:41.092Z,-0.79
2023-03-08T02:43:08.262Z,-0.92
2023-03-08T02:45:35.722Z,-0.84
2023-03-08T02:48:04.113Z,-1.05
2023-03-08T02:50:31.633Z,-0.81
2023-03-08T02:52:58.923Z,-0.90
2023-03-08T02:55:25.536Z,-0.99
2023-03-08T02:57:52.004Z,-0.84
2023-03-08T03:00:18.761Z,-0.78
2023-03-08T03:02:45.256Z,-0.83
2023-03-08T03:05:12.141Z,-0.81
2023-03-08T03:07:40.573Z,-0.80
2023-03-08T03:10:09.238Z,-0.95
2023-03-08T03:12:35.674Z,-0.81
2023-03-08T03:15:03.889Z,-0.89
2023-03-08T03:17:31.369Z,-0.73
2023-03-08T03:19:57.825Z,-0.79
2023-03-08T03:22:24.847Z,-0.76
2023-03-08T03:24:51.796Z,-0.80
2023-03-08T03:27:19.563Z,-0.81
2023-03-08T03:29:46.036Z,-0.84
2023-03-08T03:32:12.576Z,-0.76
2023-03-08T03:34:39.293Z,-0.89
2023-03-08T03:37:05.806Z,-0.85
2023-03-08T03:39:36.446Z,-0.83
2023-03-08T03:42:02.907Z,-1.00
2023-03-08T03:44:30.688Z,-0.96
2023-03-08T03:46:57.462Z,-1.03
2023-03-08T03:49:23.991Z,-1.20
2023-03-08T03:51:50.428Z,-1.24
2023-03-08T03:54:16.908Z,-1.03
2023-03-08T03:56:43.412Z,-1.07
2023-03-08T03:59:09.922Z,-1.06
2023-03-08T04:01:36.406Z,-1.08
2023-03-08T04:04:02.970Z,-1.05
2023-03-08T04:06:31.480Z,-0.94
2023-03-08T04:09:03.815Z,-0.89
2023-03-08T04:11:34.551Z,-0.89
2023-03-08T04:14:01.137Z,-0.96
2023-03-08T04:16:31.022Z,-0.90
2023-03-08T04:18:59.853Z,-0.85
2023-03-08T04:21:26.816Z,-0.92
2023-03-08T04:23:53.649Z,-0.89
2023-03-08T04:26:21.318Z,-0.89
2023-03-08T04:28:48.257Z,-0.84
2023-03-08T04:31:17.143Z,-0.93
2023-03-08T04:33:44.597Z,-0.89
2023-03-08T04:36:11.516Z,-0.85
2023-03-08T04:38:38.368Z,-0.87
2023-03-08T04:41:11.974Z,-0.85
2023-03-08T04:44:04.757Z,-0.87
2023-03-08T04:46:31.219Z,-0.98
2023-03-08T04:48:57.717Z,-1.04
2023-03-08T04:51:26.303Z,-0.95
2023-03-08T04:53:53.309Z,-0.94
2023-03-08T04:56:22.830Z,-1.03
2023-03-08T04:58:49.872Z,-1.12
2023-03-08T05:01:19.066Z,-1.09
2023-03-08T05:03:46.025Z,-1.21
2023-03-08T05:06:15.710Z,-1.33
2023-03-08T05:08:54.612Z,-1.28
2023-03-08T05:11:33.137Z,-1.47
2023-03-08T05:14:00.289Z,-1.07
2023-03-08T05:16:27.121Z,-1.05
2023-03-08T05:18:53.717Z,-1.04
2023-03-08T05:21:21.832Z,-1.04
2023-03-08T05:23:48.309Z,-0.97
2023-03-08T05:26:17.573Z,-1.04
2023-03-08T05:28:44.621Z,-1.06
2023-03-08T05:31:19.704Z,-1.08
2023-03-08T05:33:51.568Z,-0.97
2023-03-08T05:36:19.360Z,-0.94
2023-03-08T05:38:46.027Z,-0.90
2023-03-08T05:41:23.207Z,-0.94
2023-03-08T05:43:49.769Z,-1.11
2023-03-08T05:46:19.192Z,-0.91
2023-03-08T05:48:46.017Z,-1.14
2023-03-08T05:51:17.329Z,-1.06
2023-03-08T05:53:44.133Z,-1.18
2023-03-08T05:56:16.805Z,-1.13
2023-03-08T05:58:46.705Z,-1.21
2023-03-08T06:01:20.061Z,-1.17
2023-03-08T06:03:48.276Z,-1.09
2023-03-08T06:06:15.935Z,-1.05
2023-03-08T06:08:42.652Z,-1.15
2023-03-08T06:11:09.692Z,-1.15
2023-03-08T06:13:36.315Z,-1.27
2023-03-08T06:16:04.127Z,-1.09
2023-03-08T06:18:31.239Z,-1.07
2023-03-08T06:21:01.737Z,-1.08
2023-03-08T06:23:29.526Z,-1.21
2023-03-08T06:25:56.568Z,-1.16
2023-03-08T06:28:24.004Z,-1.04
2023-03-08T06:30:50.829Z,-1.03
2023-03-08T06:33:18.284Z,-1.14
2023-03-08T06:35:45.123Z,-1.15
2023-03-08T06:38:11.677Z,-0.97
2023-03-08T06:40:38.678Z,-0.90
2023-03-08T06:43:05.250Z,-0.85
2023-03-08T06:45:33.670Z,-0.91
2023-03-08T06:48:00.350Z,-0.76
2023-03-08T06:50:26.783Z,-0.70
2023-03-08T06:52:54.168Z,-0.68
2023-03-08T06:55:20.626Z,-0.66
2023-03-08T06:57:47.091Z,-0.57
2023-03-08T07:00:14.447Z,-0.58
2023-03-08T07:02:41.066Z,-0.52
2023-03-08T07:05:07.928Z,-0.57
2023-03-08T07:07:35.663Z,-0.49
2023-03-08T07:10:03.692Z,-0.51
2023-03-08T07:12:32.212Z,-0.54
2023-03-08T07:14:58.912Z,-0.55
2023-03-08T07:17:25.311Z,-0.30
2023-03-08T07:19:51.762Z,-0.33
2023-03-08T07:22:18.272Z,-0.31
2023-03-08T07:24:49.687Z,-0.29
2023-03-08T07:27:16.233Z,-0.24
2023-03-08T07:29:42.794Z,-0.16
2023-03-08T07:32:09.353Z,-0.24
2023-03-08T07:34:35.850Z,-0.15
2023-03-08T07:37:02.261Z,-0.13
2023-03-08T07:39:28.653Z,-0.13
2023-03-08T07:41:55.115Z,-0.17
2023-03-08T07:44:21.519Z,-0.16
2023-03-08T07:46:48.220Z,-0.28
2023-03-08T07:49:14.679Z,0.11
2023-03-08T07:51:41.102Z,0.05
2023-03-08T07:54:10.299Z,-0.05
2023-03-08T07:56:36.753Z,0.15
2023-03-08T07:59:03.192Z,0.04
2023-03-08T08:01:30.014Z,0.22
2023-03-08T08:03:56.432Z,0.21
2023-03-08T08:06:22.867Z,0.37
2023-03-08T08:08:49.285Z,0.25
2023-03-08T08:11:17.355Z,0.41
2023-03-08T08:13:43.916Z,0.34
2023-03-08T08:16:10.488Z,0.35
2023-03-08T08:18:36.953Z,0.41
2023-03-08T08:21:09.206Z,0.59
2023-03-08T08:23:36.666Z,0.65
2023-03-08T08:26:08.536Z,0.69
2023-03-08T08:28:37.013Z,0.81
2023-03-08T08:31:07.258Z,0.85
2023-03-08T08:33:34.849Z,0.98
2023-03-08T08:36:04.915Z,1.07
2023-03-08T08:38:31.888Z,1.17
2023-03-08T08:41:02.784Z,1.15
2023-03-08T08:43:29.924Z,1.16
2023-03-08T08:45:58.648Z,1.32
2023-03-08T08:48:26.095Z,1.48
2023-03-08T08:50:52.606Z,1.47
2023-03-08T08:53:20.309Z,1.63
2023-03-08T08:55:47.024Z,1.85
2023-03-08T08:58:15.595Z,1.93
2023-03-08T09:00:42.365Z,1.68
2023-03-08T09:03:09.105Z,2.02
2023-03-08T09:05:39.587Z,2.19
2023-03-08T09:08:06.820Z,2.26
2023-03-08T09:10:35.156Z,2.40
2023-03-08T09:13:01.624Z,2.36
2023-03-08T09:15:28.213Z,2.59
2023-03-08T09:17:54.958Z,2.54
2023-03-08T09:20:23.382Z,2.75
2023-03-08T09:22:50.593Z,2.85
2023-03-08T09:25:19.822Z,2.87
2023-03-08T09:27:46.321Z,2.97
2023-03-08T09:30:14.326Z,3.02
2023-03-08T09:32:40.905Z,2.91
2023-03-08T09:35:07.588Z,2.90
2023-03-08T09:40:09.700Z,2.86
2023-03-08T09:42:38.177Z,2.84
2023-03-08T09:45:13.694Z,2.85
2023-03-08T09:48:05.466Z,2.87
2023-03-08T09:50:37.887Z,2.90
2023-03-08T09:53:24.191Z,2.93
2023-03-08T09:56:03.249Z,2.84
2023-03-08T09:58:36.895Z,2.82
2023-03-08T10:01:24.641Z,2.74
2023-03-08T10:04:09.388Z,2.83
2023-03-08T10:06:45.035Z,2.92
2023-03-08T10:09:34.379Z,2.85
2023-03-08T10:12:36.362Z,2.80
2023-03-08T10:15:09.196Z,2.74
2023-03-08T10:17:49.029Z,2.67
2023-03-08T10:20:31.202Z,2.58
2023-03-08T10:23:00.763Z,2.83
2023-03-08T10:25:33.932Z,2.91
2023-03-08T10:28:03.346Z,2.95
2023-03-08T10:30:36.825Z,3.08
2023-03-08T10:33:10.112Z,3.16
2023-03-08T10:35:53.288Z,3.43
2023-03-08T10:38:19.814Z,3.72
2023-03-08T10:40:46.610Z,4.17
2023-03-08T10:43:40.588Z,4.69
2023-03-08T10:46:19.452Z,4.84
2023-03-08T10:48:46.728Z,4.89
2023-03-08T10:51:31.156Z,4.83
2023-03-08T10:54:03.002Z,4.89
2023-03-08T10:56:38.394Z,4.61
2023-03-08T10:59:15.330Z,4.79
2023-03-08T11:01:50.589Z,5.15
2023-03-08T11:04:19.880Z,5.64
2023-03-08T11:06:46.434Z,6.07
2023-03-08T11:09:42.114Z,5.58
2023-03-08T11:12:22.608Z,5.65
2023-03-08T11:14:49.226Z,5.33
2023-03-08T11:17:28.163Z,4.85
2023-03-08T11:20:20.068Z,4.62
2023-03-08T11:23:14.987Z,4.38
2023-03-08T11:26:00.870Z,4.43
2023-03-08T11:28:53.574Z,4.55
2023-03-08T11:31:35.841Z,4.55
2023-03-08T11:34:28.885Z,5.06
2023-03-08T11:37:38.702Z,5.24
2023-03-08T11:40:22.515Z,5.23
2023-03-08T11:42:54.997Z,5.23
2023-03-08T11:46:10.406Z,5.20
2023-03-08T11:49:10.772Z,5.20
2023-03-08T11:51:46.785Z,5.29
2023-03-08T11:54:53.832Z,5.08
2023-03-08T11:57:22.575Z,4.74
2023-03-08T12:00:12.932Z,4.73
2023-03-08T12:02:46.165Z,4.76
2023-03-08T12:05:24.401Z,4.97
2023-03-08T12:08:03.053Z,5.03
2023-03-08T12:10:49.869Z,5.10
2023-03-08T12:13:25.299Z,5.41
2023-03-08T12:16:02.167Z,5.46
2023-03-08T12:18:34.496Z,5.38
2023-03-08T12:21:30.283Z,5.18
2023-03-08T12:24:12.970Z,4.92
2023-03-08T12:26:45.331Z,4.82
2023-03-08T12:29:29.970Z,4.61
2023-03-08T12:31:57.319Z,4.41
2023-03-08T12:34:30.220Z,4.28
2023-03-08T12:36:56.972Z,4.21
2023-03-08T12:39:35.680Z,4.31
2023-03-08T12:47:23.431Z,4.03
2023-03-08T12:52:32.215Z,3.98
2023-03-08T13:00:36.570Z,3.87
2023-03-08T13:03:28.774Z,3.93
2023-03-08T13:06:14.151Z,3.89
2023-03-08T13:08:56.279Z,3.91
2023-03-08T13:11:25.877Z,4.30
2023-03-08T13:13:58.152Z,4.32
2023-03-08T13:16:32.827Z,4.23
2023-03-08T13:19:16.644Z,4.03
2023-03-08T13:24:51.590Z,3.78
2023-03-08T13:27:39.063Z,4.05
2023-03-08T13:30:18.036Z,4.06
2023-03-08T13:32:44.773Z,3.83
2023-03-08T13:35:15.349Z,3.76
2023-03-08T13:37:41.837Z,3.71
2023-03-08T13:40:18.574Z,3.67
2023-03-08T13:42:58.567Z,3.70
2023-03-08T13:45:26.631Z,3.36
2023-03-08T13:47:56.505Z,3.46
2023-03-08T13:50:31.598Z,3.72
2023-03-08T13:53:18.786Z,3.47
2023-03-08T13:55:50.713Z,3.18
2023-03-08T13:58:18.268Z,3.66
2023-03-08T14:00:45.706Z,3.57
2023-03-08T14:03:19.942Z,3.58
2023-03-08T14:05:49.466Z,3.13
2023-03-08T14:08:32.612Z,3.26
2023-03-08T14:11:02.515Z,3.04
2023-03-08T14:13:39.146Z,3.17
2023-03-08T14:16:07.484Z,2.96
2023-03-08T14:18:39.589Z,2.77
2023-03-08T14:21:12.334Z,3.30
2023-03-08T14:23:42.208Z,3.21
2023-03-08T14:26:35.264Z,3.34
2023-03-08T14:29:21.618Z,3.05
2023-03-08T14:31:54.369Z,3.26
2023-03-08T14:34:24.571Z,3.05
2023-03-08T14:37:11.535Z,2.88
2023-03-08T14:39:45.984Z,2.70
2023-03-08T14:42:30.373Z,3.26
2023-03-08T14:45:00.547Z,2.68
2023-03-08T14:47:30.080Z,2.85
2023-03-08T14:50:08.499Z,3.26
2023-03-08T14:52:43.537Z,3.20
2023-03-08T14:55:30.740Z,3.11
2023-03-08T14:58:08.275Z,3.02
2023-03-08T15:00:40.397Z,2.96
2023-03-08T15:03:06.862Z,3.05
2023-03-08T15:05:33.436Z,2.90
2023-03-08T15:08:00.642Z,2.69
2023-03-08T15:10:30.604Z,2.41
2023-03-08T15:12:57.996Z,2.91
2023-03-08T15:15:24.753Z,2.74
2023-03-08T15:17:52.361Z,2.71
2023-03-08T15:20:21.392Z,2.85
2023-03-08T15:22:52.412Z,2.82
2023-03-08T15:25:26.163Z,2.76
2023-03-08T15:27:52.826Z,2.80
2023-03-08T15:30:40.887Z,2.67
2023-03-08T15:33:07.796Z,2.53
2023-03-08T15:41:09.604Z,2.10
2023-03-08T15:47:10.149Z,2.28
2023-03-08T15:49:48.576Z,2.30
2023-03-08T15:52:36.968Z,1.86
2023-03-08T16:06:39.462Z,2.11
2023-03-08T16:13:15.772Z,2.06
2023-03-08T16:16:04.066Z,1.95
2023-03-08T16:22:40.334Z,1.37
2023-03-08T16:28:04.479Z,1.50
2023-03-08T16:30:38.667Z,1.64
2023-03-08T16:36:56.123Z,1.39
2023-03-08T16:39:24.519Z,1.10
2023-03-08T16:41:51.308Z,1.41
2023-03-08T16:44:26.270Z,1.09
2023-03-08T16:46:53.027Z,1.42
2023-03-08T16:49:30.088Z,1.47
2023-03-08T16:51:59.393Z,1.23
2023-03-08T16:54:26.140Z,1.36
2023-03-08T16:56:52.886Z,1.13
2023-03-08T16:59:19.541Z,0.84
2023-03-08T18:25:14.645Z,0.60
2023-03-08T18:30:40.891Z,-0.04
2023-03-08T18:33:10.708Z,0.61
2023-03-08T18:41:24.895Z,0.68
2023-03-08T19:01:44.047Z,0.56
2023-03-08T19:05:17.549Z,-0.09
2023-03-08T19:08:39.014Z,0.52
2023-03-08T20:22:40.523Z,-0.43
